sensor_id;sensor_type;location;lat;lon;timestamp;P1;durP1;ratioP1;P2;durP2;ratioP2
33074;SDS011;19433;51.292;6.868;2022-12-07T06:31:46;17.73;;;14.80;;
33074;SDS011;19433;51.292;6.868;2022-12-07T06:34:15;16.83;;;13.50;;
33074;SDS011;19433;51.292;6.868;2022-12-07T06:36:42;14.67;;;12.47;;
33074;SDS011;19433;51.292;6.868;2022-12-07T06:39:08;19.00;;;14.57;;
33074;SDS011;19433;51.292;6.868;2022-12-07T06:41:34;19.03;;;14.03;;
33074;SDS011;19433;51.292;6.868;2022-12-07T06:44:03;19.97;;;14.70;;
33074;SDS011;19433;51.292;6.868;2022-12-07T06:46:29;18.00;;;14.60;;
33074;SDS011;19433;51.292;6.868;2022-12-07T06:48:55;18.30;;;15.20;;
33074;SDS011;19433;51.292;6.868;2022-12-07T06:51:20;16.73;;;14.73;;
33074;SDS011;19433;51.292;6.868;2022-12-07T06:53:45;21.07;;;13.60;;
33074;SDS011;19433;51.292;6.868;2022-12-07T06:56:11;21.60;;;14.60;;
33074;SDS011;19433;51.292;6.868;2022-12-07T06:58:36;18.67;;;13.50;;
33074;SDS011;19433;51.292;6.868;2022-12-07T07:01:01;18.00;;;15.33;;
33074;SDS011;19433;51.292;6.868;2022-12-07T07:03:28;19.80;;;14.53;;
33074;SDS011;19433;51.292;6.868;2022-12-07T07:05:53;15.70;;;13.57;;
33074;SDS011;19433;51.292;6.868;2022-12-07T07:08:18;17.10;;;15.10;;
33074;SDS011;19433;51.292;6.868;2022-12-07T07:10:43;17.90;;;14.73;;
33074;SDS011;19433;51.292;6.868;2022-12-07T07:13:09;18.07;;;14.67;;
33074;SDS011;19433;51.292;6.868;2022-12-07T07:15:34;14.70;;;13.40;;
33074;SDS011;19433;51.292;6.868;2022-12-07T07:18:00;15.70;;;13.83;;
33074;SDS011;19433;51.292;6.868;2022-12-07T07:20:25;14.40;;;13.13;;
33074;SDS011;19433;51.292;6.868;2022-12-07T07:22:53;20.10;;;15.17;;
33074;SDS011;19433;51.292;6.868;2022-12-07T07:25:19;15.77;;;12.87;;
33074;SDS011;19433;51.292;6.868;2022-12-07T07:27:44;18.10;;;13.77;;
33074;SDS011;19433;51.292;6.868;2022-12-07T07:30:09;15.03;;;12.93;;
33074;SDS011;19433;51.292;6.868;2022-12-07T07:32:35;15.43;;;13.03;;
33074;SDS011;19433;51.292;6.868;2022-12-07T07:35:00;16.93;;;13.53;;
33074;SDS011;19433;51.292;6.868;2022-12-07T07:37:25;14.07;;;12.67;;
33074;SDS011;19433;51.292;6.868;2022-12-07T07:39:51;14.20;;;12.30;;
33074;SDS011;19433;51.292;6.868;2022-12-07T07:42:16;12.40;;;11.10;;
33074;SDS011;19433;51.292;6.868;2022-12-07T07:44:41;14.27;;;11.60;;
33074;SDS011;19433;51.292;6.868;2022-12-07T07:47:07;12.17;;;10.97;;
33074;SDS011;19433;51.292;6.868;2022-12-07T07:49:32;15.07;;;12.10;;
33074;SDS011;19433;51.292;6.868;2022-12-07T07:51:57;14.03;;;12.60;;
33074;SDS011;19433;51.292;6.868;2022-12-07T07:54:23;18.40;;;11.90;;
33074;SDS011;19433;51.292;6.868;2022-12-07T07:56:48;13.87;;;12.40;;
33074;SDS011;19433;51.292;6.868;2022-12-07T07:59:14;21.03;;;12.70;;
33074;SDS011;19433;51.292;6.868;2022-12-07T08:01:39;17.33;;;13.53;;
33074;SDS011;19433;51.292;6.868;2022-12-07T08:04:04;18.53;;;14.17;;
33074;SDS011;19433;51.292;6.868;2022-12-07T08:06:30;20.30;;;15.10;;
33074;SDS011;19433;51.292;6.868;2022-12-07T08:08:55;17.97;;;14.20;;
33074;SDS011;19433;51.292;6.868;2022-12-07T08:11:22;19.70;;;14.90;;
33074;SDS011;19433;51.292;6.868;2022-12-07T08:13:48;17.50;;;13.40;;
33074;SDS011;19433;51.292;6.868;2022-12-07T08:16:13;16.40;;;14.70;;
33074;SDS011;19433;51.292;6.868;2022-12-07T08:18:40;16.37;;;14.60;;
33074;SDS011;19433;51.292;6.868;2022-12-07T08:21:07;15.10;;;13.70;;
33074;SDS011;19433;51.292;6.868;2022-12-07T08:23:35;19.83;;;14.83;;
33074;SDS011;19433;51.292;6.868;2022-12-07T08:26:01;18.80;;;13.70;;
33074;SDS011;19433;51.292;6.868;2022-12-07T08:28:31;17.60;;;12.97;;
33074;SDS011;19433;51.292;6.868;2022-12-07T08:31:04;14.27;;;12.97;;
33074;SDS011;19433;51.292;6.868;2022-12-07T08:33:31;15.73;;;13.20;;
33074;SDS011;19433;51.292;6.868;2022-12-07T08:36:00;16.23;;;13.57;;
33074;SDS011;19433;51.292;6.868;2022-12-07T08:38:30;14.87;;;12.47;;
33074;SDS011;19433;51.292;6.868;2022-12-07T08:40:57;15.93;;;12.83;;
33074;SDS011;19433;51.292;6.868;2022-12-07T08:43:23;14.10;;;11.70;;
33074;SDS011;19433;51.292;6.868;2022-12-07T08:45:51;12.80;;;11.60;;
33074;SDS011;19433;51.292;6.868;2022-12-07T08:48:27;13.23;;;11.23;;
33074;SDS011;19433;51.292;6.868;2022-12-07T08:50:53;18.50;;;10.83;;
33074;SDS011;19433;51.292;6.868;2022-12-07T08:53:18;12.90;;;11.60;;
33074;SDS011;19433;51.292;6.868;2022-12-07T08:55:46;13.60;;;12.10;;
33074;SDS011;19433;51.292;6.868;2022-12-07T08:58:13;10.73;;;9.60;;
33074;SDS011;19433;51.292;6.868;2022-12-07T09:00:38;10.63;;;9.53;;
33074;SDS011;19433;51.292;6.868;2022-12-07T09:03:04;10.63;;;9.53;;
33074;SDS011;19433;51.292;6.868;2022-12-07T09:05:29;9.50;;;8.70;;
33074;SDS011;19433;51.292;6.868;2022-12-07T09:07:55;10.63;;;7.80;;
33074;SDS011;19433;51.292;6.868;2022-12-07T09:10:24;10.60;;;8.97;;
33074;SDS011;19433;51.292;6.868;2022-12-07T09:12:49;10.43;;;8.80;;
33074;SDS011;19433;51.292;6.868;2022-12-07T09:15:15;8.73;;;7.70;;
33074;SDS011;19433;51.292;6.868;2022-12-07T09:17:40;9.60;;;8.50;;
33074;SDS011;19433;51.292;6.868;2022-12-07T09:20:05;9.10;;;8.10;;
33074;SDS011;19433;51.292;6.868;2022-12-07T09:22:31;8.90;;;7.90;;
33074;SDS011;19433;51.292;6.868;2022-12-07T09:24:58;8.40;;;7.70;;
33074;SDS011;19433;51.292;6.868;2022-12-07T09:27:24;9.67;;;8.40;;
33074;SDS011;19433;51.292;6.868;2022-12-07T09:29:49;11.13;;;9.10;;
33074;SDS011;19433;51.292;6.868;2022-12-07T09:32:14;9.67;;;7.50;;
33074;SDS011;19433;51.292;6.868;2022-12-07T09:34:40;7.80;;;7.20;;
33074;SDS011;19433;51.292;6.868;2022-12-07T09:37:05;7.97;;;7.27;;
33074;SDS011;19433;51.292;6.868;2022-12-07T09:39:31;8.93;;;8.10;;
33074;SDS011;19433;51.292;6.868;2022-12-07T09:41:57;7.77;;;6.97;;
33074;SDS011;19433;51.292;6.868;2022-12-07T09:44:24;7.97;;;7.10;;
33074;SDS011;19433;51.292;6.868;2022-12-07T09:46:51;7.30;;;6.60;;
33074;SDS011;19433;51.292;6.868;2022-12-07T09:49:18;6.13;;;5.53;;
33074;SDS011;19433;51.292;6.868;2022-12-07T09:51:46;8.10;;;5.60;;
33074;SDS011;19433;51.292;6.868;2022-12-07T09:54:12;5.50;;;5.10;;
33074;SDS011;19433;51.292;6.868;2022-12-07T09:56:39;10.20;;;6.47;;
33074;SDS011;19433;51.292;6.868;2022-12-07T09:59:05;6.90;;;5.73;;
33074;SDS011;19433;51.292;6.868;2022-12-07T10:01:31;6.50;;;5.90;;
33074;SDS011;19433;51.292;6.868;2022-12-07T10:04:18;7.40;;;6.70;;
33074;SDS011;19433;51.292;6.868;2022-12-07T10:06:46;7.53;;;6.50;;
33074;SDS011;19433;51.292;6.868;2022-12-07T10:09:13;7.30;;;5.33;;
33074;SDS011;19433;51.292;6.868;2022-12-07T10:14:24;7.60;;;6.80;;
33074;SDS011;19433;51.292;6.868;2022-12-07T10:16:51;7.70;;;6.17;;
33074;SDS011;19433;51.292;6.868;2022-12-07T10:24:37;9.20;;;7.70;;
33074;SDS011;19433;51.292;6.868;2022-12-07T10:27:11;6.70;;;6.20;;
33074;SDS011;19433;51.292;6.868;2022-12-07T10:29:47;8.87;;;7.97;;
33074;SDS011;19433;51.292;6.868;2022-12-07T10:34:40;7.60;;;6.80;;
33074;SDS011;19433;51.292;6.868;2022-12-07T10:37:07;7.83;;;7.13;;
33074;SDS011;19433;51.292;6.868;2022-12-07T10:42:22;13.30;;;9.70;;
33074;SDS011;19433;51.292;6.868;2022-12-07T10:45:09;8.57;;;7.67;;
33074;SDS011;19433;51.292;6.868;2022-12-07T10:47:44;13.77;;;7.80;;
33074;SDS011;19433;51.292;6.868;2022-12-07T10:50:28;8.37;;;7.40;;
33074;SDS011;19433;51.292;6.868;2022-12-07T10:53:22;10.93;;;8.10;;
33074;SDS011;19433;51.292;6.868;2022-12-07T10:58:59;11.63;;;6.70;;
33074;SDS011;19433;51.292;6.868;2022-12-07T11:09:58;7.87;;;4.30;;
33074;SDS011;19433;51.292;6.868;2022-12-07T11:15:24;5.97;;;4.70;;
33074;SDS011;19433;51.292;6.868;2022-12-07T11:17:56;7.53;;;5.07;;
33074;SDS011;19433;51.292;6.868;2022-12-07T11:20:29;6.30;;;4.10;;
33074;SDS011;19433;51.292;6.868;2022-12-07T11:29:14;4.70;;;3.60;;
33074;SDS011;19433;51.292;6.868;2022-12-07T11:37:34;3.90;;;3.50;;
33074;SDS011;19433;51.292;6.868;2022-12-07T11:40:08;7.33;;;3.57;;
33074;SDS011;19433;51.292;6.868;2022-12-07T11:42:44;5.70;;;4.03;;
33074;SDS011;19433;51.292;6.868;2022-12-07T11:45:20;9.70;;;4.73;;
33074;SDS011;19433;51.292;6.868;2022-12-07T11:47:58;4.80;;;4.13;;
33074;SDS011;19433;51.292;6.868;2022-12-07T11:50:34;4.20;;;3.47;;
33074;SDS011;19433;51.292;6.868;2022-12-07T11:58:35;7.70;;;4.07;;
33074;SDS011;19433;51.292;6.868;2022-12-07T12:03:40;9.07;;;4.80;;
33074;SDS011;19433;51.292;6.868;2022-12-07T12:06:09;6.77;;;3.20;;
33074;SDS011;19433;51.292;6.868;2022-12-07T12:08:36;7.20;;;3.67;;
33074;SDS011;19433;51.292;6.868;2022-12-07T12:16:40;8.53;;;3.67;;
33074;SDS011;19433;51.292;6.868;2022-12-07T12:19:15;10.40;;;4.00;;
33074;SDS011;19433;51.292;6.868;2022-12-07T12:21:48;5.83;;;4.07;;
33074;SDS011;19433;51.292;6.868;2022-12-07T12:24:25;6.10;;;4.00;;
33074;SDS011;19433;51.292;6.868;2022-12-07T12:27:00;7.63;;;4.23;;
33074;SDS011;19433;51.292;6.868;2022-12-07T12:29:34;8.67;;;4.13;;
33074;SDS011;19433;51.292;6.868;2022-12-07T12:32:17;8.10;;;3.20;;
33074;SDS011;19433;51.292;6.868;2022-12-07T12:37:38;3.93;;;3.53;;
33074;SDS011;19433;51.292;6.868;2022-12-07T12:42:45;5.50;;;3.60;;
33074;SDS011;19433;51.292;6.868;2022-12-07T12:48:00;6.93;;;3.90;;
33074;SDS011;19433;51.292;6.868;2022-12-07T12:50:31;6.27;;;3.87;;
33074;SDS011;19433;51.292;6.868;2022-12-07T12:53:19;6.43;;;3.80;;
33074;SDS011;19433;51.292;6.868;2022-12-07T12:55:54;3.50;;;3.13;;
33074;SDS011;19433;51.292;6.868;2022-12-07T12:58:36;3.93;;;3.63;;
33074;SDS011;19433;51.292;6.868;2022-12-07T13:04:03;6.57;;;3.67;;
33074;SDS011;19433;51.292;6.868;2022-12-07T13:06:43;5.10;;;3.53;;
33074;SDS011;19433;51.292;6.868;2022-12-07T13:09:17;6.03;;;2.90;;
33074;SDS011;19433;51.292;6.868;2022-12-07T13:11:47;8.03;;;3.70;;
33074;SDS011;19433;51.292;6.868;2022-12-07T13:19:56;8.20;;;2.53;;
33074;SDS011;19433;51.292;6.868;2022-12-07T13:25:10;2.70;;;2.23;;
33074;SDS011;19433;51.292;6.868;2022-12-07T13:27:44;9.63;;;3.10;;
33074;SDS011;19433;51.292;6.868;2022-12-07T13:30:21;5.80;;;2.63;;
33074;SDS011;19433;51.292;6.868;2022-12-07T13:32:54;4.10;;;2.77;;
33074;SDS011;19433;51.292;6.868;2022-12-07T13:35:35;5.87;;;3.40;;
33074;SDS011;19433;51.292;6.868;2022-12-07T13:38:04;6.00;;;3.00;;
33074;SDS011;19433;51.292;6.868;2022-12-07T13:40:31;7.80;;;3.30;;
33074;SDS011;19433;51.292;6.868;2022-12-07T13:42:57;5.57;;;3.80;;
33074;SDS011;19433;51.292;6.868;2022-12-07T13:45:27;6.77;;;3.20;;
33074;SDS011;19433;51.292;6.868;2022-12-07T13:48:21;4.77;;;3.43;;
33074;SDS011;19433;51.292;6.868;2022-12-07T13:50:57;7.40;;;3.93;;
33074;SDS011;19433;51.292;6.868;2022-12-07T13:53:24;3.40;;;3.07;;
33074;SDS011;19433;51.292;6.868;2022-12-07T13:55:49;4.30;;;3.53;;
33074;SDS011;19433;51.292;6.868;2022-12-07T13:58:15;6.03;;;3.13;;
33074;SDS011;19433;51.292;6.868;2022-12-07T14:00:41;5.67;;;2.93;;
33074;SDS011;19433;51.292;6.868;2022-12-07T14:05:39;4.30;;;2.67;;
33074;SDS011;19433;51.292;6.868;2022-12-07T14:10:38;7.30;;;3.33;;
33074;SDS011;19433;51.292;6.868;2022-12-07T14:16:00;4.00;;;2.57;;
33074;SDS011;19433;51.292;6.868;2022-12-07T14:18:34;3.70;;;3.17;;
33074;SDS011;19433;51.292;6.868;2022-12-07T14:21:18;6.40;;;2.80;;
33074;SDS011;19433;51.292;6.868;2022-12-07T14:24:02;5.67;;;2.67;;
33074;SDS011;19433;51.292;6.868;2022-12-07T14:26:35;4.70;;;2.40;;
33074;SDS011;19433;51.292;6.868;2022-12-07T14:29:29;5.73;;;2.47;;
33074;SDS011;19433;51.292;6.868;2022-12-07T14:31:58;4.97;;;2.30;;
33074;SDS011;19433;51.292;6.868;2022-12-07T14:34:54;3.50;;;2.20;;
33074;SDS011;19433;51.292;6.868;2022-12-07T14:37:19;4.70;;;2.50;;
33074;SDS011;19433;51.292;6.868;2022-12-07T14:39:45;2.67;;;2.47;;
33074;SDS011;19433;51.292;6.868;2022-12-07T14:42:10;3.60;;;2.10;;
33074;SDS011;19433;51.292;6.868;2022-12-07T14:44:35;3.90;;;2.30;;
33074;SDS011;19433;51.292;6.868;2022-12-07T14:47:00;3.40;;;2.57;;
33074;SDS011;19433;51.292;6.868;2022-12-07T14:49:26;7.67;;;2.23;;
33074;SDS011;19433;51.292;6.868;2022-12-07T14:51:51;9.03;;;3.47;;
33074;SDS011;19433;51.292;6.868;2022-12-07T14:54:18;4.67;;;2.50;;
33074;SDS011;19433;51.292;6.868;2022-12-07T14:56:45;5.13;;;2.83;;
33074;SDS011;19433;51.292;6.868;2022-12-07T14:59:14;4.63;;;2.47;;
33074;SDS011;19433;51.292;6.868;2022-12-07T15:01:40;3.67;;;3.23;;
33074;SDS011;19433;51.292;6.868;2022-12-07T15:04:06;4.90;;;3.17;;
33074;SDS011;19433;51.292;6.868;2022-12-07T15:06:32;5.67;;;3.00;;
33074;SDS011;19433;51.292;6.868;2022-12-07T15:08:57;3.90;;;3.50;;
33074;SDS011;19433;51.292;6.868;2022-12-07T15:11:23;7.40;;;3.43;;
33074;SDS011;19433;51.292;6.868;2022-12-07T15:13:48;7.30;;;4.03;;
33074;SDS011;19433;51.292;6.868;2022-12-07T15:16:32;4.20;;;2.83;;
33074;SDS011;19433;51.292;6.868;2022-12-07T15:18:57;4.33;;;3.80;;
33074;SDS011;19433;51.292;6.868;2022-12-07T15:21:22;6.50;;;3.80;;
33074;SDS011;19433;51.292;6.868;2022-12-07T15:23:48;7.67;;;4.33;;
33074;SDS011;19433;51.292;6.868;2022-12-07T15:26:13;5.00;;;4.40;;
33074;SDS011;19433;51.292;6.868;2022-12-07T15:28:39;4.57;;;4.10;;
33074;SDS011;19433;51.292;6.868;2022-12-07T15:31:10;4.87;;;4.27;;
33074;SDS011;19433;51.292;6.868;2022-12-07T15:33:36;12.53;;;5.30;;
33074;SDS011;19433;51.292;6.868;2022-12-07T15:36:02;7.73;;;4.33;;
33074;SDS011;19433;51.292;6.868;2022-12-07T15:38:27;10.17;;;5.70;;
33074;SDS011;19433;51.292;6.868;2022-12-07T15:40:55;8.83;;;3.97;;
33074;SDS011;19433;51.292;6.868;2022-12-07T15:43:20;8.40;;;4.23;;
33074;SDS011;19433;51.292;6.868;2022-12-07T15:46:04;11.70;;;4.30;;
33074;SDS011;19433;51.292;6.868;2022-12-07T15:48:29;8.63;;;4.93;;
33074;SDS011;19433;51.292;6.868;2022-12-07T15:53:30;8.33;;;4.40;;
33074;SDS011;19433;51.292;6.868;2022-12-07T15:55:55;6.10;;;4.80;;
33074;SDS011;19433;51.292;6.868;2022-12-07T16:03:31;6.13;;;4.27;;
33074;SDS011;19433;51.292;6.868;2022-12-07T16:05:57;7.60;;;4.40;;
33074;SDS011;19433;51.292;6.868;2022-12-07T16:08:22;5.43;;;4.23;;
33074;SDS011;19433;51.292;6.868;2022-12-07T16:10:48;6.87;;;4.23;;
33074;SDS011;19433;51.292;6.868;2022-12-07T16:13:13;4.73;;;4.33;;
33074;SDS011;19433;51.292;6.868;2022-12-07T16:15:39;6.50;;;4.70;;
33074;SDS011;19433;51.292;6.868;2022-12-07T16:20:41;8.57;;;4.97;;
33074;SDS011;19433;51.292;6.868;2022-12-07T16:23:06;6.70;;;4.50;;
33074;SDS011;19433;51.292;6.868;2022-12-07T16:25:33;7.23;;;4.83;;
33074;SDS011;19433;51.292;6.868;2022-12-07T16:27:59;7.07;;;5.53;;
33074;SDS011;19433;51.292;6.868;2022-12-07T16:30:24;11.00;;;4.93;;
33074;SDS011;19433;51.292;6.868;2022-12-07T16:32:50;11.90;;;4.80;;
33074;SDS011;19433;51.292;6.868;2022-12-07T16:35:16;6.83;;;4.70;;
33074;SDS011;19433;51.292;6.868;2022-12-07T16:37:42;6.57;;;4.80;;
33074;SDS011;19433;51.292;6.868;2022-12-07T16:40:08;8.73;;;5.80;;
33074;SDS011;19433;51.292;6.868;2022-12-07T16:42:35;8.37;;;5.33;;
33074;SDS011;19433;51.292;6.868;2022-12-07T16:45:01;7.63;;;5.30;;
33074;SDS011;19433;51.292;6.868;2022-12-07T16:47:28;9.27;;;5.07;;
33074;SDS011;19433;51.292;6.868;2022-12-07T16:49:53;6.70;;;5.17;;
33074;SDS011;19433;51.292;6.868;2022-12-07T16:52:20;10.50;;;5.20;;
33074;SDS011;19433;51.292;6.868;2022-12-07T16:54:46;11.33;;;5.53;;
33074;SDS011;19433;51.292;6.868;2022-12-07T16:57:13;6.87;;;4.93;;
33074;SDS011;19433;51.292;6.868;2022-12-07T16:59:39;10.20;;;6.37;;
33074;SDS011;19433;51.292;6.868;2022-12-07T17:02:04;10.90;;;5.83;;
33074;SDS011;19433;51.292;6.868;2022-12-07T17:04:32;7.40;;;5.83;;
33074;SDS011;19433;51.292;6.868;2022-12-07T17:06:58;9.00;;;6.60;;
33074;SDS011;19433;51.292;6.868;2022-12-07T17:09:24;10.10;;;6.93;;
33074;SDS011;19433;51.292;6.868;2022-12-07T17:11:49;9.80;;;7.67;;
33074;SDS011;19433;51.292;6.868;2022-12-07T17:14:16;10.07;;;8.00;;
33074;SDS011;19433;51.292;6.868;2022-12-07T17:17:06;8.70;;;6.83;;
33074;SDS011;19433;51.292;6.868;2022-12-07T17:19:32;8.63;;;6.63;;
33074;SDS011;19433;51.292;6.868;2022-12-07T17:21:57;10.67;;;6.60;;
33074;SDS011;19433;51.292;6.868;2022-12-07T17:24:23;8.73;;;7.00;;
33074;SDS011;19433;51.292;6.868;2022-12-07T17:26:48;9.37;;;7.00;;
33074;SDS011;19433;51.292;6.868;2022-12-07T17:29:14;11.20;;;8.73;;
33074;SDS011;19433;51.292;6.868;2022-12-07T17:34:17;10.07;;;8.03;;
33074;SDS011;19433;51.292;6.868;2022-12-07T17:36:43;9.43;;;8.40;;
33074;SDS011;19433;51.292;6.868;2022-12-07T17:39:10;9.33;;;8.40;;
33074;SDS011;19433;51.292;6.868;2022-12-07T17:41:38;10.23;;;8.40;;
33074;SDS011;19433;51.292;6.868;2022-12-07T17:44:22;11.57;;;10.43;;
33074;SDS011;19433;51.292;6.868;2022-12-07T17:46:49;10.10;;;9.10;;
33074;SDS011;19433;51.292;6.868;2022-12-07T17:49:21;14.93;;;9.90;;
33074;SDS011;19433;51.292;6.868;2022-12-07T17:51:47;12.80;;;8.00;;
33074;SDS011;19433;51.292;6.868;2022-12-07T17:54:31;10.57;;;9.67;;
33074;SDS011;19433;51.292;6.868;2022-12-07T17:56:57;9.47;;;8.63;;
33074;SDS011;19433;51.292;6.868;2022-12-07T17:59:22;10.90;;;9.60;;
33074;SDS011;19433;51.292;6.868;2022-12-07T18:01:48;11.57;;;10.63;;
33074;SDS011;19433;51.292;6.868;2022-12-07T18:04:14;12.30;;;10.40;;
33074;SDS011;19433;51.292;6.868;2022-12-07T18:06:39;10.50;;;9.60;;
33074;SDS011;19433;51.292;6.868;2022-12-07T18:09:07;12.47;;;11.27;;
33074;SDS011;19433;51.292;6.868;2022-12-07T18:11:33;9.67;;;8.80;;
33074;SDS011;19433;51.292;6.868;2022-12-07T18:13:59;11.13;;;9.47;;
33074;SDS011;19433;51.292;6.868;2022-12-07T18:16:26;10.20;;;9.00;;
33074;SDS011;19433;51.292;6.868;2022-12-07T18:18:53;9.57;;;8.67;;
33074;SDS011;19433;51.292;6.868;2022-12-07T18:21:20;9.30;;;8.40;;
33074;SDS011;19433;51.292;6.868;2022-12-07T18:23:50;9.63;;;8.83;;
33074;SDS011;19433;51.292;6.868;2022-12-07T18:26:17;10.63;;;9.73;;
33074;SDS011;19433;51.292;6.868;2022-12-07T18:28:44;9.20;;;8.30;;
33074;SDS011;19433;51.292;6.868;2022-12-07T18:31:10;8.87;;;7.87;;
33074;SDS011;19433;51.292;6.868;2022-12-07T18:33:39;12.30;;;8.60;;
33074;SDS011;19433;51.292;6.868;2022-12-07T18:36:05;9.33;;;8.50;;
33074;SDS011;19433;51.292;6.868;2022-12-07T18:48:46;10.07;;;8.80;;
33074;SDS011;19433;51.292;6.868;2022-12-07T18:51:13;10.37;;;9.20;;
33074;SDS011;19433;51.292;6.868;2022-12-07T18:53:39;12.73;;;10.60;;
33074;SDS011;19433;51.292;6.868;2022-12-07T18:58:31;11.53;;;10.43;;
33074;SDS011;19433;51.292;6.868;2022-12-07T19:00:57;13.50;;;11.50;;
33074;SDS011;19433;51.292;6.868;2022-12-07T19:03:23;13.03;;;11.73;;
33074;SDS011;19433;51.292;6.868;2022-12-07T19:05:49;14.53;;;13.00;;
33074;SDS011;19433;51.292;6.868;2022-12-07T19:08:14;13.97;;;11.70;;
33074;SDS011;19433;51.292;6.868;2022-12-07T19:10:40;16.83;;;12.83;;
33074;SDS011;19433;51.292;6.868;2022-12-07T19:13:05;13.90;;;12.60;;
33074;SDS011;19433;51.292;6.868;2022-12-07T19:15:32;13.97;;;12.00;;
33074;SDS011;19433;51.292;6.868;2022-12-07T19:17:58;15.60;;;14.03;;
33074;SDS011;19433;51.292;6.868;2022-12-07T19:20:23;19.43;;;15.03;;
33074;SDS011;19433;51.292;6.868;2022-12-07T19:28:03;15.30;;;13.70;;
33074;SDS011;19433;51.292;6.868;2022-12-07T19:30:29;17.83;;;15.07;;
33074;SDS011;19433;51.292;6.868;2022-12-07T19:35:29;17.10;;;15.30;;
33074;SDS011;19433;51.292;6.868;2022-12-07T19:43:05;17.20;;;15.37;;
33074;SDS011;19433;51.292;6.868;2022-12-07T19:53:16;20.53;;;16.70;;
33074;SDS011;19433;51.292;6.868;2022-12-07T20:00:52;17.47;;;15.57;;
33074;SDS011;19433;51.292;6.868;2022-12-07T20:03:17;17.10;;;15.40;;
33074;SDS011;19433;51.292;6.868;2022-12-07T20:05:42;24.23;;;18.77;;
33074;SDS011;19433;51.292;6.868;2022-12-07T20:08:08;25.43;;;17.77;;
33074;SDS011;19433;51.292;6.868;2022-12-07T20:10:33;16.77;;;15.07;;
33074;SDS011;19433;51.292;6.868;2022-12-07T20:13:03;21.50;;;16.50;;
33074;SDS011;19433;51.292;6.868;2022-12-07T20:15:47;20.97;;;18.77;;
33074;SDS011;19433;51.292;6.868;2022-12-07T20:18:12;18.87;;;16.87;;
33074;SDS011;19433;51.292;6.868;2022-12-07T20:20:38;20.10;;;18.10;;
33074;SDS011;19433;51.292;6.868;2022-12-07T20:23:03;20.77;;;18.60;;
33074;SDS011;19433;51.292;6.868;2022-12-07T20:25:28;20.07;;;17.97;;
33074;SDS011;19433;51.292;6.868;2022-12-07T20:33:04;20.60;;;17.17;;
33074;SDS011;19433;51.292;6.868;2022-12-07T20:35:29;20.60;;;17.90;;
33074;SDS011;19433;51.292;6.868;2022-12-07T20:37:54;21.77;;;17.87;;
33074;SDS011;19433;51.292;6.868;2022-12-07T20:45:23;22.47;;;19.87;;
33074;SDS011;19433;51.292;6.868;2022-12-07T20:47:48;22.73;;;18.07;;
33074;SDS011;19433;51.292;6.868;2022-12-07T20:50:13;24.57;;;19.70;;
33074;SDS011;19433;51.292;6.868;2022-12-07T20:52:39;21.97;;;19.23;;
33074;SDS011;19433;51.292;6.868;2022-12-07T20:55:04;22.30;;;19.90;;
33074;SDS011;19433;51.292;6.868;2022-12-07T21:02:41;24.93;;;19.47;;
33074;SDS011;19433;51.292;6.868;2022-12-07T21:05:06;23.40;;;18.00;;
33074;SDS011;19433;51.292;6.868;2022-12-07T21:15:17;23.50;;;19.33;;
33074;SDS011;19433;51.292;6.868;2022-12-07T21:17:42;20.60;;;16.70;;
33074;SDS011;19433;51.292;6.868;2022-12-07T21:20:08;23.10;;;18.13;;
33074;SDS011;19433;51.292;6.868;2022-12-07T21:22:33;20.23;;;17.37;;
33074;SDS011;19433;51.292;6.868;2022-12-07T21:35:19;20.87;;;17.00;;
33074;SDS011;19433;51.292;6.868;2022-12-07T21:37:44;21.80;;;17.83;;
33074;SDS011;19433;51.292;6.868;2022-12-07T21:40:10;20.80;;;17.33;;
33074;SDS011;19433;51.292;6.868;2022-12-07T21:42:35;21.83;;;18.13;;
33074;SDS011;19433;51.292;6.868;2022-12-07T21:55:21;23.00;;;17.10;;
33074;SDS011;19433;51.292;6.868;2022-12-07T22:02:57;24.90;;;15.90;;
33074;SDS011;19433;51.292;6.868;2022-12-07T22:05:22;19.57;;;16.60;;
33074;SDS011;19433;51.292;6.868;2022-12-07T22:07:47;21.97;;;16.47;;
33074;SDS011;19433;51.292;6.868;2022-12-07T22:10:13;18.90;;;16.90;;
33074;SDS011;19433;51.292;6.868;2022-12-07T22:15:27;18.73;;;16.60;;
33074;SDS011;19433;51.292;6.868;2022-12-07T22:17:53;19.10;;;16.43;;
33074;SDS011;19433;51.292;6.868;2022-12-07T22:20:20;19.57;;;16.63;;
33074;SDS011;19433;51.292;6.868;2022-12-07T22:22:47;21.80;;;16.73;;
33074;SDS011;19433;51.292;6.868;2022-12-07T22:25:13;19.13;;;16.57;;
33074;SDS011;19433;51.292;6.868;2022-12-07T22:27:39;20.10;;;15.73;;
33074;SDS011;19433;51.292;6.868;2022-12-07T22:30:06;20.80;;;15.63;;
33074;SDS011;19433;51.292;6.868;2022-12-07T22:32:34;18.03;;;16.13;;
33074;SDS011;19433;51.292;6.868;2022-12-07T22:34:59;18.40;;;16.13;;
33074;SDS011;19433;51.292;6.868;2022-12-07T22:39:59;24.53;;;18.27;;
33074;SDS011;19433;51.292;6.868;2022-12-07T22:42:25;18.00;;;16.10;;
33074;SDS011;19433;51.292;6.868;2022-12-07T22:44:50;19.67;;;17.50;;
33074;SDS011;19433;51.292;6.868;2022-12-07T22:47:15;20.40;;;18.23;;
33074;SDS011;19433;51.292;6.868;2022-12-07T22:49:41;20.50;;;17.70;;
33074;SDS011;19433;51.292;6.868;2022-12-07T22:52:07;21.93;;;17.50;;
33074;SDS011;19433;51.292;6.868;2022-12-07T22:54:32;24.70;;;17.20;;
33074;SDS011;19433;51.292;6.868;2022-12-07T22:56:57;20.23;;;16.50;;
33074;SDS011;19433;51.292;6.868;2022-12-07T22:59:23;18.73;;;16.73;;
33074;SDS011;19433;51.292;6.868;2022-12-07T23:01:48;19.33;;;17.13;;
33074;SDS011;19433;51.292;6.868;2022-12-07T23:04:13;20.83;;;17.83;;
33074;SDS011;19433;51.292;6.868;2022-12-07T23:06:38;19.47;;;16.90;;
33074;SDS011;19433;51.292;6.868;2022-12-07T23:09:05;19.83;;;17.40;;
33074;SDS011;19433;51.292;6.868;2022-12-07T23:11:35;22.10;;;18.13;;
33074;SDS011;19433;51.292;6.868;2022-12-07T23:14:26;19.93;;;16.97;;
33074;SDS011;19433;51.292;6.868;2022-12-07T23:16:56;19.47;;;17.47;;
33074;SDS011;19433;51.292;6.868;2022-12-07T23:19:22;19.07;;;16.30;;
33074;SDS011;19433;51.292;6.868;2022-12-07T23:21:48;21.40;;;19.10;;
33074;SDS011;19433;51.292;6.868;2022-12-07T23:24:13;20.37;;;18.20;;
33074;SDS011;19433;51.292;6.868;2022-12-07T23:26:39;20.63;;;18.47;;
33074;SDS011;19433;51.292;6.868;2022-12-07T23:29:05;25.73;;;20.17;;
33074;SDS011;19433;51.292;6.868;2022-12-07T23:31:31;20.77;;;18.67;;
33074;SDS011;19433;51.292;6.868;2022-12-07T23:33:56;19.93;;;17.93;;
33074;SDS011;19433;51.292;6.868;2022-12-07T23:36:22;21.27;;;18.67;;
33074;SDS011;19433;51.292;6.868;2022-12-07T23:38:50;21.20;;;18.30;;
33074;SDS011;19433;51.292;6.868;2022-12-07T23:41:18;20.70;;;18.50;;
33074;SDS011;19433;51.292;6.868;2022-12-07T23:43:45;22.63;;;20.40;;
33074;SDS011;19433;51.292;6.868;2022-12-07T23:46:15;24.97;;;20.03;;
33074;SDS011;19433;51.292;6.868;2022-12-07T23:48:42;22.47;;;20.17;;
33074;SDS011;19433;51.292;6.868;2022-12-07T23:51:08;23.87;;;19.87;;
33074;SDS011;19433;51.292;6.868;2022-12-07T23:53:35;21.37;;;19.10;;
33074;SDS011;19433;51.292;6.868;2022-12-07T23:56:03;21.30;;;19.03;;
33074;SDS011;19433;51.292;6.868;2022-12-07T23:58:28;21.00;;;18.80;;
